Time;durP1;ratioP1;P1;durP2;ratioP2;P2;SDS_P1;SDS_P2;PMS_P1;PMS_P2;Temp;Humidity;BMP_temperature;BMP_pressure;BME280_temperature;BME280_humidity;BME280_pressure;Samples;Min_cycle;Max_cycle;Signal;HPM_P1;HPM_P2
2023/10/07 00:02:14;;;;;;;13.45;5.85;;;;;;;12.18;100.00;102183.81;5013292;28;20026;-77
2023/10/07 00:04:40;;;;;;;10.73;4.75;;;;;;;12.17;100.00;102184.72;5033652;28;20034;-77
2023/10/07 00:07:13;;;;;;;10.27;5.05;;;;;;;12.19;100.00;102183.81;5024642;28;20029;-77
2023/10/07 00:09:41;;;;;;;9.55;5.07;;;;;;;12.14;100.00;102169.06;5028300;28;20540;-77
2023/10/07 00:12:12;;;;;;;10.32;5.28;;;;;;;12.16;100.00;102162.06;5029464;28;20461;-77
2023/10/07 00:14:37;;;;;;;7.80;5.80;;;;;;;12.17;100.00;102162.06;5025358;28;20117;-77
2023/10/07 00:17:06;;;;;;;11.43;5.47;;;;;;;12.19;100.00;102154.19;5036394;28;20113;-77
2023/10/07 00:19:33;;;;;;;10.82;5.22;;;;;;;12.16;100.00;102165.56;5023182;28;20070;-77
2023/10/07 00:21:59;;;;;;;10.10;5.68;;;;;;;12.15;100.00;102168.16;5003888;28;20482;-77
2023/10/07 00:24:25;;;;;;;11.30;6.10;;;;;;;12.15;100.00;102162.94;5030815;28;20046;-77
2023/10/07 00:26:52;;;;;;;9.37;5.97;;;;;;;12.18;100.00;102168.13;4996207;27;1062186;-77
2023/10/07 00:29:21;;;;;;;11.20;6.00;;;;;;;12.16;100.00;102155.09;5025248;28;20726;-77
2023/10/07 00:31:50;;;;;;;12.77;6.13;;;;;;;12.23;100.00;102161.13;5048055;28;20025;-77
2023/10/07 00:34:16;;;;;;;10.60;6.35;;;;;;;12.24;100.00;102155.03;5033484;28;20043;-77
2023/10/07 00:36:41;;;;;;;15.80;6.55;;;;;;;12.24;100.00;102154.16;5023521;28;20492;-77
2023/10/07 00:39:08;;;;;;;11.52;6.65;;;;;;;12.22;100.00;102175.06;5028222;28;20030;-77
2023/10/07 00:41:39;;;;;;;10.25;6.25;;;;;;;12.18;100.00;102157.69;5051382;28;20060;-77
2023/10/07 00:44:29;;;;;;;12.68;6.93;;;;;;;12.14;100.00;102161.22;5035087;28;20092;-77
2023/10/07 00:47:19;;;;;;;12.63;6.35;;;;;;;12.12;100.00;102157.75;5017896;28;20028;-77
2023/10/07 00:52:28;;;;;;;15.82;7.43;;;;;;;12.15;100.00;102169.03;5023868;28;20106;-77
2023/10/07 00:57:35;;;;;;;11.77;6.97;;;;;;;12.14;100.00;102163.84;5031866;28;20498;-77
2023/10/07 01:00:12;;;;;;;12.45;7.53;;;;;;;12.11;100.00;102156.00;5031516;28;20071;-77
2023/10/07 01:02:38;;;;;;;14.60;8.00;;;;;;;12.10;100.00;102151.69;5035483;28;20186;-77
2023/10/07 01:05:12;;;;;;;15.88;7.72;;;;;;;12.09;100.00;102149.91;5033577;28;20089;-77
2023/10/07 01:07:38;;;;;;;12.95;7.45;;;;;;;12.11;100.00;102150.78;5032437;28;20032;-77
2023/10/07 01:12:38;;;;;;;15.93;8.32;;;;;;;12.08;100.00;102124.66;5025223;28;20078;-77
2023/10/07 01:15:12;;;;;;;16.50;8.73;;;;;;;12.08;100.00;102124.66;5044426;28;20043;-77
2023/10/07 01:17:40;;;;;;;;;;;;;;;12.10;100.00;102133.38;5026185;28;20061;-77
2023/10/07 01:20:08;;;;;;;11.93;7.40;;;;;;;12.08;100.00;102133.38;5021961;28;19923;-77
2023/10/07 01:22:36;;;;;;;14.88;8.30;;;;;;;12.12;100.00;102147.28;5024874;28;20022;-77
2023/10/07 01:25:09;;;;;;;14.00;9.27;;;;;;;12.15;100.00;102162.94;5052145;28;20048;-77
2023/10/07 01:27:53;;;;;;;17.00;8.80;;;;;;;12.17;100.00;102148.97;5023129;28;20098;-77
2023/10/07 01:30:26;;;;;;;17.48;9.40;;;;;;;12.23;100.00;102155.91;5027374;28;20023;-77
2023/10/07 01:33:01;;;;;;;14.27;8.68;;;;;;;12.24;100.00;102146.31;5019820;28;20094;-77
2023/10/07 01:35:32;;;;;;;18.75;8.85;;;;;;;12.22;100.00;102158.53;5014652;28;20083;-77
2023/10/07 01:38:06;;;;;;;16.15;9.50;;;;;;;12.22;100.00;102154.16;5019892;28;20071;-77
2023/10/07 01:40:34;;;;;;;16.10;8.90;;;;;;;12.20;100.00;102140.25;5029599;28;20083;-77
2023/10/07 01:43:02;;;;;;;15.00;8.85;;;;;;;12.18;100.00;102142.00;5020553;28;20089;-77
2023/10/07 01:45:34;;;;;;;17.17;9.88;;;;;;;12.18;100.00;102139.38;5039844;28;20031;-77
2023/10/07 01:48:07;;;;;;;15.75;9.18;;;;;;;12.15;100.00;102145.50;5016591;28;20056;-77
2023/10/07 01:50:43;;;;;;;17.00;10.00;;;;;;;12.15;100.00;102147.25;5039840;28;20482;-77
2023/10/07 01:53:11;;;;;;;21.63;10.27;;;;;;;12.18;100.00;102136.78;5018900;28;20022;-77
2023/10/07 01:55:42;;;;;;;16.60;9.80;;;;;;;12.17;100.00;102141.13;5038410;28;20095;-77
2023/10/07 01:58:13;;;;;;;17.50;10.35;;;;;;;12.20;100.00;102124.56;5022670;28;20030;-78
2023/10/07 02:00:51;;;;;;;15.20;10.23;;;;;;;12.30;100.00;102141.88;5037180;28;20052;-77
2023/10/07 02:03:17;;;;;;;19.55;10.50;;;;;;;12.36;100.00;102147.06;5018670;28;20104;-77
2023/10/07 02:05:49;;;;;;;20.52;10.60;;;;;;;12.38;100.00;102137.44;5035587;28;20229;-77
2023/10/07 02:08:20;;;;;;;17.83;10.13;;;;;;;12.46;100.00;102139.09;5026951;28;20101;-77
2023/10/07 02:10:47;;;;;;;15.38;10.55;;;;;;;12.47;100.00;102136.47;5034509;28;20037;-77
2023/10/07 02:13:18;;;;;;;18.65;10.82;;;;;;;12.48;100.00;102146.06;5034912;28;20097;-77
2023/10/07 02:15:44;;;;;;;19.75;11.13;;;;;;;12.49;100.00;102142.56;5028795;28;20401;-77
2023/10/07 02:18:15;;;;;;;25.95;12.55;;;;;;;12.47;100.00;102130.38;5041458;28;20033;-77
2023/10/07 02:20:43;;;;;;;18.95;11.30;;;;;;;12.51;100.00;102130.31;5024870;28;20029;-77
2023/10/07 02:23:12;;;;;;;22.17;12.45;;;;;;;12.49;100.00;102120.75;5021208;28;20088;-77
2023/10/07 02:25:41;;;;;;;23.83;13.45;;;;;;;12.49;100.00;102126.88;5023570;28;20495;-77
2023/10/07 02:28:07;;;;;;;22.80;13.40;;;;;;;12.51;100.00;102125.09;5050573;28;20481;-77
2023/10/07 02:30:39;;;;;;;20.27;12.63;;;;;;;12.59;100.00;102133.75;5029961;28;20480;-77
2023/10/07 02:33:08;;;;;;;24.33;13.80;;;;;;;12.64;100.00;102136.28;5019894;28;20026;-77
2023/10/07 02:35:36;;;;;;;21.02;13.45;;;;;;;12.69;100.00;102121.41;5023623;28;20037;-77
2023/10/07 02:38:03;;;;;;;25.15;13.95;;;;;;;12.72;100.00;102121.38;5019303;28;20022;-77
2023/10/07 02:40:48;;;;;;;25.02;15.10;;;;;;;12.76;100.00;102133.53;5039466;28;20479;-77
2023/10/07 02:43:15;;;;;;;27.85;14.90;;;;;;;12.80;100.00;102132.59;5021611;28;20029;-77
2023/10/07 02:45:42;;;;;;;25.35;14.98;;;;;;;12.82;100.00;102137.84;5038970;28;20032;-77
2023/10/07 02:48:11;;;;;;;27.70;13.70;;;;;;;12.86;100.00;102140.38;5020551;28;20022;-77
2023/10/07 02:50:42;;;;;;;29.75;15.70;;;;;;;12.86;100.00;102132.53;5029251;28;20479;-76
2023/10/07 02:53:14;;;;;;;22.23;14.82;;;;;;;12.89;100.00;102137.72;5021450;28;20071;-77
2023/10/07 02:58:13;;;;;;;31.27;16.20;;;;;;;12.92;100.00;102125.50;5017800;28;20504;-77
2023/10/07 03:00:39;;;;;;;25.27;15.13;;;;;;;12.92;100.00;102130.75;5036975;28;20489;-77
2023/10/07 03:05:44;;;;;;;29.50;16.75;;;;;;;12.98;100.00;102142.00;5030733;28;20084;-77
2023/10/07 03:08:19;;;;;;;31.50;16.63;;;;;;;13.00;100.00;102145.44;5033101;28;20125;-77
2023/10/07 03:10:54;;;;;;;27.73;16.05;;;;;;;12.98;100.00;102133.25;5037070;28;20030;-77
2023/10/07 03:13:19;;;;;;;31.48;15.48;;;;;;;13.01;100.00;102141.06;5032445;28;20026;-77
2023/10/07 03:15:46;;;;;;;29.90;16.42;;;;;;;13.01;100.00;102135.84;5034170;28;20062;-77
2023/10/07 03:18:29;;;;;;;24.08;15.43;;;;;;;13.01;100.00;102127.97;5043794;28;20097;-77
2023/10/07 03:21:06;;;;;;;;;;;;;;;13.06;100.00;102145.38;5037825;28;20029;-77
2023/10/07 03:23:33;;;;;;;24.30;15.32;;;;;;;13.06;100.00;102140.13;5035270;28;20054;-77
2023/10/07 03:28:34;;;;;;;33.13;16.77;;;;;;;13.10;100.00;102126.09;5028463;28;20151;-77
2023/10/07 03:31:00;;;;;;;28.80;17.35;;;;;;;13.10;100.00;102128.72;5037413;28;20082;-76
2023/10/07 03:39:16;;;;;;;29.63;17.85;;;;;;;13.18;100.00;102128.63;5025384;28;20048;-77
2023/10/07 03:41:47;;;;;;;28.17;18.63;;;;;;;13.21;100.00;102128.59;5014328;28;20037;-77
2023/10/07 03:44:25;;;;;;;32.25;19.48;;;;;;;13.23;100.00;102121.56;5024075;28;20071;-77
2023/10/07 03:46:54;;;;;;;31.98;19.85;;;;;;;13.25;100.00;102125.06;5041277;28;20036;-76
2023/10/07 03:49:21;;;;;;;34.05;19.27;;;;;;;13.24;100.00;102118.13;5023071;28;20055;-77
2023/10/07 03:52:12;;;;;;;36.45;19.90;;;;;;;13.27;100.00;102102.34;5030397;28;20029;-76
2023/10/07 03:54:42;;;;;;;30.55;18.55;;;;;;;13.28;100.00;102104.09;5044868;28;20097;-77
2023/10/07 03:57:08;;;;;;;32.67;19.90;;;;;;;13.27;100.00;102099.72;5031053;28;20062;-77
2023/10/07 03:59:34;;;;;;;34.15;20.02;;;;;;;13.33;100.00;102110.09;5043878;28;20037;-77
2023/10/07 04:02:00;;;;;;;36.55;21.73;;;;;;;13.31;100.00;102093.56;5031021;28;20136;-77
2023/10/07 04:04:26;;;;;;;32.47;20.27;;;;;;;13.35;100.00;102094.38;5046272;28;20079;-77
2023/10/07 04:06:52;;;;;;;32.60;19.38;;;;;;;13.36;100.00;102085.63;5032512;28;20089;-77
2023/10/07 04:09:19;;;;;;;37.45;20.98;;;;;;;13.37;100.00;102091.72;5047557;28;20484;-77
2023/10/07 04:11:50;;;;;;;35.10;20.65;;;;;;;13.37;100.00;102081.25;5032147;28;20034;-77
2023/10/07 04:14:19;;;;;;;34.25;20.27;;;;;;;13.38;100.00;102083.84;5050243;28;20027;-76
2023/10/07 04:16:52;;;;;;;35.78;20.35;;;;;;;13.35;100.00;102084.75;5031567;28;20037;-77
2023/10/07 04:21:50;;;;;;;36.03;19.85;;;;;;;13.38;100.00;102085.63;5032255;28;20056;-77
2023/10/07 04:24:18;;;;;;;32.65;19.88;;;;;;;13.39;100.00;102088.19;5050090;28;20039;-77
2023/10/07 04:26:54;;;;;;;33.90;20.02;;;;;;;13.40;100.00;102096.91;5033918;28;20107;-77
2023/10/07 04:29:21;;;;;;;35.42;19.45;;;;;;;13.38;100.00;102083.84;5011422;28;20034;-77
2023/10/07 04:31:54;;;;;;;30.13;19.25;;;;;;;13.42;100.00;102098.63;5039853;28;20025;-77
2023/10/07 04:34:24;;;;;;;31.80;19.23;;;;;;;13.40;100.00;102092.53;5012971;28;20068;-77
2023/10/07 04:39:38;;;;;;;28.45;17.38;;;;;;;13.43;100.00;102096.88;5014307;28;20033;-77
2023/10/07 04:42:20;;;;;;;31.75;18.23;;;;;;;13.43;100.00;102097.72;5042571;28;20082;-76
2023/10/07 04:52:30;;;;;;;28.58;17.15;;;;;;;13.43;100.00;102097.72;5045825;28;20037;-76
2023/10/07 04:54:59;;;;;;;27.60;17.08;;;;;;;13.48;100.00;102116.03;5023088;28;20021;-77
2023/10/07 05:00:17;;;;;;;25.45;15.25;;;;;;;13.46;100.00;102117.78;5019998;28;20026;-77
2023/10/07 05:02:43;;;;;;;24.85;15.45;;;;;;;13.45;100.00;102105.59;5048249;28;20023;-77
2023/10/07 05:05:13;;;;;;;25.65;14.80;;;;;;;13.43;100.00;102102.09;5022752;28;20025;-77
2023/10/07 05:07:39;;;;;;;29.05;14.85;;;;;;;13.44;100.00;102107.34;5051312;28;20112;-77
2023/10/07 05:10:07;;;;;;;24.00;14.68;;;;;;;13.44;100.00;102111.69;5022416;28;20017;-77
2023/10/07 05:12:33;;;;;;;20.35;14.07;;;;;;;13.41;100.00;102096.91;5045924;28;20033;-77
2023/10/07 05:15:00;;;;;;;25.85;14.63;;;;;;;13.44;100.00;102112.59;5028135;28;20029;-77
2023/10/07 05:17:28;;;;;;;25.60;14.48;;;;;;;13.43;100.00;102108.22;5046125;28;20045;-76
2023/10/07 05:19:54;;;;;;;24.13;14.95;;;;;;;13.48;100.00;102121.25;5041245;28;20086;-77
2023/10/07 05:22:19;;;;;;;23.15;13.93;;;;;;;13.47;100.00;102106.41;5058306;28;20037;-77
2023/10/07 05:24:47;;;;;;;24.05;13.07;;;;;;;13.48;100.00;102114.25;5060069;28;20034;-76
2023/10/07 05:27:12;;;;;;;21.55;13.65;;;;;;;13.50;100.00;102109.84;5052428;28;20131;-77
2023/10/07 05:29:40;;;;;;;25.38;13.68;;;;;;;13.49;100.00;102112.50;5052808;28;20457;-77
2023/10/07 05:32:06;;;;;;;22.98;13.43;;;;;;;13.50;100.00;102115.09;5054270;28;20035;-77
2023/10/07 05:34:33;;;;;;;20.52;13.07;;;;;;;13.53;100.00;102098.47;5045707;28;20026;-77
2023/10/07 05:37:03;;;;;;;19.92;12.45;;;;;;;13.52;100.00;102094.13;5034315;28;20034;-77
2023/10/07 05:39:28;;;;;;;23.52;12.60;;;;;;;13.52;100.00;102083.63;5013925;28;20042;-77
2023/10/07 05:41:54;;;;;;;22.88;12.98;;;;;;;13.56;100.00;102090.56;5030397;28;20594;-77
2023/10/07 05:44:20;;;;;;;23.23;12.20;;;;;;;13.56;100.00;102103.66;5029184;28;20033;-77
2023/10/07 05:46:45;;;;;;;24.35;12.45;;;;;;;13.56;100.00;102098.41;5022929;28;20437;-77
2023/10/07 05:49:10;;;;;;;20.63;12.70;;;;;;;13.54;100.00;102105.44;5037907;28;20036;-77
2023/10/07 05:51:37;;;;;;;22.73;13.25;;;;;;;13.56;100.00;102112.38;5021991;28;20028;-77
2023/10/07 05:54:03;;;;;;;20.75;13.10;;;;;;;13.55;100.00;102118.50;5029135;28;20041;-77
2023/10/07 05:56:29;;;;;;;19.58;12.98;;;;;;;13.56;100.00;102114.13;5020132;28;20068;-77
2023/10/07 05:58:55;;;;;;;25.92;13.05;;;;;;;13.58;100.00;102100.13;5039235;28;20053;-77
2023/10/07 06:01:21;;;;;;;29.05;13.60;;;;;;;13.57;100.00;102100.16;5022292;28;20036;-77
2023/10/07 06:03:46;;;;;;;20.83;12.57;;;;;;;13.60;100.00;102102.69;5040529;28;20104;-77
2023/10/07 06:06:14;;;;;;;23.17;12.50;;;;;;;13.63;100.00;102112.28;5024014;28;20533;-77
2023/10/07 06:08:40;;;;;;;20.45;12.13;;;;;;;13.66;100.00;102118.34;5040722;28;20060;-77
2023/10/07 06:11:10;;;;;;;23.25;11.98;;;;;;;13.70;100.00;102117.41;5026203;28;20045;-77
2023/10/07 06:13:37;;;;;;;25.85;12.63;;;;;;;13.72;100.00;102109.50;5041428;28;20094;-77
2023/10/07 06:16:04;;;;;;;19.95;12.68;;;;;;;13.73;100.00;102119.09;5027065;28;20410;-77
2023/10/07 06:18:33;;;;;;;22.23;12.43;;;;;;;13.73;100.00;102119.09;5040885;28;20477;-77
2023/10/07 06:21:17;;;;;;;23.63;11.88;;;;;;;13.74;100.00;102124.34;5027859;28;20478;-77
2023/10/07 06:23:43;;;;;;;25.15;12.55;;;;;;;13.75;100.00;102120.81;5041366;28;20026;-77
2023/10/07 06:26:09;;;;;;;18.90;11.77;;;;;;;13.76;100.00;102103.31;5028816;28;20105;-77
2023/10/07 06:28:35;;;;;;;20.45;12.20;;;;;;;13.76;100.00;102122.53;5040827;28;20030;-77
2023/10/07 06:31:11;;;;;;;20.40;11.60;;;;;;;13.78;100.00;102126.00;5011365;28;20026;-77
2023/10/07 06:33:44;;;;;;;16.27;10.80;;;;;;;13.80;100.00;102139.97;5037180;28;20030;-77
2023/10/07 06:36:12;;;;;;;18.42;11.32;;;;;;;13.81;100.00;102141.69;5016656;28;20025;-77
2023/10/07 06:38:38;;;;;;;18.30;11.00;;;;;;;13.85;100.00;102146.88;5036993;28;20324;-77
2023/10/07 06:41:09;;;;;;;22.67;11.57;;;;;;;13.85;100.00;102152.97;5019791;28;20125;-77
2023/10/07 06:43:37;;;;;;;20.02;10.98;;;;;;;13.88;100.00;102133.72;5039006;28;20083;-77
2023/10/07 06:46:02;;;;;;;20.50;10.95;;;;;;;13.90;100.00;102134.56;5023784;28;20034;-77
2023/10/07 06:48:30;;;;;;;16.42;10.20;;;;;;;13.94;100.00;102138.88;5041279;28;20030;-77
2023/10/07 06:50:55;;;;;;;16.00;10.68;;;;;;;13.97;100.00;102125.72;5023262;28;20075;-77
2023/10/07 06:53:23;;;;;;;17.63;11.02;;;;;;;14.01;100.00;102137.88;5041764;28;20429;-77
2023/10/07 06:55:49;;;;;;;27.52;11.05;;;;;;;14.12;100.00;102145.53;5026411;28;20030;-76
2023/10/07 06:58:14;;;;;;;20.67;10.52;;;;;;;14.19;100.00;102147.16;5039758;28;20045;-77
2023/10/07 07:00:47;;;;;;;17.35;10.43;;;;;;;14.26;100.00;102144.41;5027723;28;20082;-77
2023/10/07 07:03:19;;;;;;;14.95;10.20;;;;;;;14.32;100.00;102147.81;5040200;28;20121;-77
2023/10/07 07:05:46;;;;;;;17.88;9.93;;;;;;;14.29;100.00;102143.50;5027022;28;20025;-77
2023/10/07 07:08:12;;;;;;;16.98;9.95;;;;;;;14.26;100.00;102152.28;5040670;28;20370;-77
2023/10/07 07:10:38;;;;;;;17.45;8.98;;;;;;;14.22;100.00;102142.75;5008003;28;20036;-77
2023/10/07 07:13:05;;;;;;;17.20;9.18;;;;;;;14.24;100.00;102145.31;5043455;28;20034;-77
2023/10/07 07:15:36;;;;;;;16.98;9.85;;;;;;;14.31;100.00;102153.94;5021204;28;20050;-77
2023/10/07 07:18:14;;;;;;;20.60;10.15;;;;;;;14.38;100.00;102159.03;5044402;28;20015;-77
2023/10/07 07:21:00;;;;;;;19.40;9.70;;;;;;;14.48;100.00;102159.75;5028984;28;20464;-77
2023/10/07 07:23:39;;;;;;;16.55;8.90;;;;;;;14.55;100.00;102164.03;5043939;28;20071;-77
2023/10/07 07:26:10;;;;;;;16.95;8.93;;;;;;;14.63;100.00;102163.88;5029580;28;20436;-77
2023/10/07 07:28:42;;;;;;;14.38;8.43;;;;;;;14.64;100.00;102166.47;5044470;28;20037;-77
2023/10/07 07:31:11;;;;;;;15.50;8.82;;;;;;;14.68;100.00;102165.53;5051912;28;20098;-77
2023/10/07 07:33:37;;;;;;;19.70;8.88;;;;;;;14.70;100.00;102176.84;5037386;28;20029;-77
2023/10/07 07:36:18;;;;;;;13.93;8.20;;;;;;;14.63;100.00;102177.88;5012231;28;20101;-77
2023/10/07 07:38:44;;;;;;;16.75;8.77;;;;;;;14.57;100.00;102170.09;5039648;28;20053;-77
2023/10/07 07:41:11;;;;;;;18.58;9.60;;;;;;;14.52;100.00;102174.59;5020667;28;20033;-77
2023/10/07 07:43:39;;;;;;;15.40;8.88;;;;;;;14.44;100.00;102173.81;5039377;28;20038;-77
2023/10/07 07:48:43;;;;;;;19.30;9.32;;;;;;;14.46;100.00;102170.28;5026167;28;20385;-77
2023/10/07 07:51:11;;;;;;;18.17;9.50;;;;;;;14.57;100.00;102164.84;5052620;28;20029;-77
2023/10/07 07:53:36;;;;;;;18.15;8.93;;;;;;;14.68;100.00;102178.66;5023502;28;20054;-81
2023/10/07 07:56:02;;;;;;;19.77;9.40;;;;;;;14.71;100.00;102175.97;5049042;28;20075;-76
2023/10/07 07:58:27;;;;;;;17.15;9.63;;;;;;;14.69;100.00;102175.13;5022056;28;20077;-76
2023/10/07 08:01:01;;;;;;;16.20;9.50;;;;;;;14.66;100.00;102169.94;5036369;28;20096;-76
2023/10/07 08:03:26;;;;;;;14.75;9.05;;;;;;;14.64;100.00;102181.34;5023936;28;20021;-76
2023/10/07 08:05:51;;;;;;;15.80;9.02;;;;;;;14.71;100.00;102191.72;5027464;28;20393;-76
2023/10/07 08:08:25;;;;;;;14.75;9.30;;;;;;;14.78;100.00;102195.09;5050704;28;20033;-76
2023/10/07 08:10:54;;;;;;;15.77;9.05;;;;;;;14.86;100.00;102193.16;5016680;28;20388;-76
2023/10/07 08:13:23;;;;;;;14.90;9.38;;;;;;;14.95;100.00;102194.75;5046190;28;20103;-76
2023/10/07 08:15:50;;;;;;;15.50;9.32;;;;;;;15.02;100.00;102193.72;5022599;28;20045;-76
2023/10/07 08:18:16;;;;;;;17.92;9.48;;;;;;;15.07;100.00;102191.84;5044593;28;20032;-76
2023/10/07 08:20:44;;;;;;;18.75;9.05;;;;;;;15.10;100.00;102194.41;5026868;28;20094;-76
2023/10/07 08:23:29;;;;;;;12.82;8.38;;;;;;;15.20;100.00;102202.97;5035540;28;20534;-77
2023/10/07 08:26:08;;;;;;;16.77;8.60;;;;;;;15.23;100.00;102198.50;5012533;28;20404;-76
2023/10/07 08:31:19;;;;;;;17.23;9.63;;;;;;;15.33;100.00;102191.31;5018132;28;20492;-76
2023/10/07 08:33:53;;;;;;;17.55;10.65;;;;;;;15.39;100.00;102185.06;5037664;28;20116;-76
2023/10/07 08:36:18;;;;;;;19.88;9.05;;;;;;;15.42;100.00;102185.84;5019749;28;20101;-76
2023/10/07 08:38:44;;;;;;;16.13;8.55;;;;;;;15.50;100.00;102184.81;5029978;28;20125;-76
2023/10/07 08:41:16;;;;;;;14.35;8.10;;;;;;;15.55;100.00;102188.22;5020448;28;20060;-76
2023/10/07 08:43:45;;;;;;;15.85;8.75;;;;;;;15.61;100.00;102188.94;5038538;28;20539;-76
2023/10/07 08:46:16;;;;;;;15.30;8.50;;;;;;;15.70;100.00;102192.28;5019057;28;20033;-76
2023/10/07 08:49:25;;;;;;;14.10;9.02;;;;;;;15.72;100.00;102186.06;5040401;28;20037;-76
2023/10/07 08:51:40;;;;;;;15.55;8.82;;;;;;;15.82;100.00;102187.59;5019681;28;20142;-76
2023/10/07 08:54:17;;;;;;;15.23;9.07;;;;;;;15.87;100.00;102180.47;5043184;28;20354;-76
2023/10/07 08:56:52;;;;;;;20.30;9.00;;;;;;;15.95;100.00;102174.16;5022431;28;20035;-76
2023/10/07 08:59:22;;;;;;;16.05;8.40;;;;;;;16.04;100.00;102176.56;5043669;28;20026;-76
2023/10/07 09:01:47;;;;;;;15.20;8.13;;;;;;;16.08;100.00;102168.53;5023482;28;20053;-76
2023/10/07 09:04:13;;;;;;;15.77;8.00;;;;;;;16.16;100.00;102173.63;5044143;28;20057;-76
2023/10/07 09:06:50;;;;;;;19.00;8.63;;;;;;;16.22;100.00;102169.94;5020365;28;20519;-76
2023/10/07 09:09:32;;;;;;;15.70;7.70;;;;;;;16.30;100.00;102171.47;5044511;28;20026;-76
2023/10/07 09:12:02;;;;;;;13.00;7.38;;;;;;;16.37;100.00;102174.81;5017057;28;20021;-76
2023/10/07 09:14:28;;;;;;;12.43;7.32;;;;;;;16.42;100.00;102170.31;5048318;28;20112;-76
2023/10/07 09:16:54;;;;;;;11.85;6.72;;;;;;;16.43;100.00;102158.88;5022075;28;20543;-76
2023/10/07 09:19:23;;;;;;;13.43;6.57;;;;;;;16.53;100.00;102165.59;5042921;28;20029;-76
2023/10/07 09:21:56;;;;;;;17.30;6.90;;;;;;;16.54;100.00;102162.06;5019367;28;20540;-76
2023/10/07 09:24:25;;;;;;;12.18;6.40;;;;;;;16.67;100.00;102156.47;5043439;28;20033;-76
2023/10/07 09:26:57;;;;;;;10.18;6.35;;;;;;;16.72;100.00;102149.31;5028038;28;20120;-76
2023/10/07 09:29:24;;;;;;;13.43;6.43;;;;;;;16.75;100.00;102154.53;5045164;28;20060;-76
2023/10/07 09:31:56;;;;;;;11.23;6.15;;;;;;;16.81;100.00;102165.75;5059970;28;20433;-76
2023/10/07 09:34:57;;;;;;;12.38;6.13;;;;;;;16.88;100.00;102163.78;5014532;28;20022;-76
2023/10/07 09:37:26;;;;;;;10.43;5.63;;;;;;;16.96;100.00;102159.16;5030792;28;20374;-76
2023/10/07 09:40:18;;;;;;;15.02;5.80;;;;;;;17.05;100.00;102166.78;5020918;28;20054;-76
2023/10/07 09:42:56;;;;;;;9.82;5.25;;;;;;;17.18;100.00;102162.03;5035906;28;20110;-76
2023/10/07 09:45:28;;;;;;;9.38;5.22;;;;;;;17.26;100.00;102161.78;5005856;28;20026;-76
2023/10/07 09:47:54;;;;;;;11.77;6.50;;;;;;;17.32;100.00;102161.59;5018643;28;20496;-76
2023/10/07 09:50:25;;;;;;;11.98;5.43;;;;;;;17.31;100.00;102163.38;5038372;28;20027;-76
2023/10/07 09:53:00;;;;;;;11.25;5.90;;;;;;;17.40;100.00;102166.66;5018370;28;20057;-76
2023/10/07 09:55:40;;;;;;;15.90;5.97;;;;;;;17.44;100.00;102158.59;5028616;28;20490;-76
2023/10/07 09:58:47;;;;;;;9.38;5.22;;;;;;;17.51;100.00;102157.47;5020645;28;20121;-76
2023/10/07 10:01:37;;;;;;;9.80;5.20;;;;;;;17.56;100.00;102149.44;5028297;28;20052;-76
2023/10/07 10:04:13;;;;;;;12.35;5.40;;;;;;;17.63;100.00;102144.84;5021169;28;20515;-76
2023/10/07 10:06:53;;;;;;;9.50;5.28;;;;;;;17.65;100.00;102140.34;5009969;28;20439;-76
2023/10/07 10:09:27;;;;;;;10.98;5.68;;;;;;;17.74;100.00;102137.41;5021687;28;20431;-76
2023/10/07 10:14:56;;;;;;;11.23;5.22;;;;;;;17.76;100.00;102160.22;5022087;28;20037;-76
2023/10/07 10:17:32;;;;;;;14.63;4.93;;;;;;;17.87;100.00;102159.00;5044436;28;20078;-76
2023/10/07 10:20:11;;;;;;;11.70;4.97;;;;;;;17.90;100.00;102170.31;5018253;28;20426;-76
2023/10/07 10:22:38;;;;;;;8.95;4.70;;;;;;;17.92;100.00;102168.50;5047850;28;20037;-76
2023/10/07 10:25:21;;;;;;;10.10;4.50;;;;;;;18.00;100.00;102178.81;5024694;28;20060;-76
2023/10/07 10:27:47;;;;;;;8.68;4.10;;;;;;;18.07;100.00;102176.81;5047591;28;20041;-76
2023/10/07 10:30:22;;;;;;;9.55;4.57;;;;;;;18.13;100.00;102173.97;5010731;28;20032;-76
2023/10/07 10:32:54;;;;;;;10.70;4.75;;;;;;;18.27;100.00;102186.69;5038584;28;20407;-76
2023/10/07 10:35:23;;;;;;;13.82;4.22;;;;;;;18.34;100.00;102185.56;5025355;28;20485;-76
2023/10/07 10:37:59;;;;;;;8.82;4.20;;;;;;;18.44;100.00;102176.41;5038912;28;20030;-76
2023/10/07 10:40:31;;;;;;;9.07;3.97;;;;;;;18.59;100.00;102180.28;5026839;28;20072;-76
2023/10/07 10:42:57;;;;;;;14.07;4.37;;;;;;;18.70;100.00;102180.75;5038645;28;20033;-76
2023/10/07 10:45:26;;;;;;;7.53;4.35;;;;;;;18.73;100.00;102178.03;5027693;28;20029;-76
2023/10/07 10:47:56;;;;;;;14.07;4.60;;;;;;;18.74;100.00;102181.53;5040303;28;20034;-76
2023/10/07 10:50:28;;;;;;;9.55;4.35;;;;;;;18.81;100.00;102177.78;5027893;28;20021;-76
2023/10/07 10:52:54;;;;;;;10.30;4.40;;;;;;;18.85;100.00;102176.75;5041303;28;20030;-76
2023/10/07 10:55:23;;;;;;;11.88;4.50;;;;;;;18.95;100.00;102183.41;5029042;28;20426;-76
2023/10/07 10:57:50;;;;;;;10.43;4.22;;;;;;;19.00;100.00;102180.56;5042992;28;20030;-76
2023/10/07 11:00:24;;;;;;;10.05;4.28;;;;;;;19.09;100.00;102180.22;5029100;28;20022;-76
2023/10/07 11:02:51;;;;;;;13.40;4.07;;;;;;;19.20;100.00;102178.06;5044237;28;20054;-76
2023/10/07 11:05:18;;;;;;;7.72;4.40;;;;;;;19.28;100.00;102151.31;5029016;28;20033;-76
2023/10/07 11:07:48;;;;;;;10.65;4.93;;;;;;;19.30;100.00;102165.34;5047294;28;20019;-76
2023/10/07 11:10:22;;;;;;;12.93;4.30;;;;;;;19.38;100.00;102173.81;5027765;28;20075;-76
2023/10/07 11:12:52;;;;;;;;;;;;;;;19.49;100.00;102163.69;5049227;28;20030;-76
2023/10/07 11:15:24;;;;;;;11.40;4.50;;;;;;;19.61;100.00;102151.75;5029336;28;19933;-76
2023/10/07 11:18:12;;;;;;;15.80;4.77;;;;;;;19.75;100.00;102161.78;5048506;28;20080;-76
2023/10/07 11:20:39;;;;;;;13.23;4.75;;;;;;;19.82;100.00;102161.50;5030922;28;20038;-76
2023/10/07 11:23:08;;;;;;;10.38;5.05;;;;;;;19.88;100.00;102149.78;5048609;28;20062;-76
2023/10/07 11:25:35;;;;;;;9.02;4.43;;;;;;;19.92;100.00;102154.03;5030566;28;20037;-76
2023/10/07 11:28:09;;;;;;;13.18;4.03;;;;;;;20.05;100.00;102155.25;5049121;28;20036;-76
2023/10/07 11:30:45;;;;;;;9.80;4.38;;;;;;;20.27;100.00;102154.31;5008110;28;20078;-76
2023/10/07 11:33:11;;;;;;;10.05;4.22;;;;;;;20.37;100.00;102149.47;5039604;28;20036;-76
2023/10/07 11:35:39;;;;;;;11.85;4.93;;;;;;;20.41;100.00;102143.13;5023579;28;20021;-76
2023/10/07 11:38:06;;;;;;;11.13;4.78;;;;;;;20.55;100.00;102146.03;5010578;28;20052;-76
2023/10/07 11:40:32;;;;;;;10.13;4.53;;;;;;;20.81;100.00;102135.13;5025701;28;20053;-76
2023/10/07 11:43:04;;;;;;;9.57;4.85;;;;;;;21.27;100.00;102145.38;5040531;28;20473;-77
2023/10/07 11:45:31;;;;;;;10.23;4.45;;;;;;;21.66;100.00;102137.28;5027039;28;20034;-77
2023/10/07 11:47:57;;;;;;;9.20;4.40;;;;;;;21.97;100.00;102133.09;5038416;28;20030;-77
2023/10/07 11:50:29;;;;;;;9.38;4.43;;;;;;;22.06;100.00;102139.72;5027786;28;20018;-77
2023/10/07 11:52:54;;;;;;;7.72;4.65;;;;;;;22.29;100.00;102141.22;5040191;28;20377;-77
2023/10/07 11:55:20;;;;;;;9.18;4.13;;;;;;;22.53;100.00;102147.03;5029017;28;20026;-77
2023/10/07 11:57:45;;;;;;;11.65;4.40;;;;;;;22.77;98.61;102140.41;5043766;28;20098;-77
2023/10/07 12:00:27;;;;;;;9.18;4.78;;;;;;;22.78;95.10;102143.94;5026713;28;20102;-77
2023/10/07 12:02:57;;;;;;;11.15;3.88;;;;;;;22.87;100.00;102143.44;5043871;28;20097;-77
2023/10/07 12:05:24;;;;;;;9.80;4.30;;;;;;;23.00;98.95;102139.19;5028927;28;20030;-77
2023/10/07 12:07:50;;;;;;;10.95;3.90;;;;;;;23.30;100.00;102141.06;5053260;28;20031;-77